createdAt,value
2019-02-24T13:39:04.276Z,24.73
2019-02-24T13:41:35.576Z,25.21
2019-02-24T13:44:05.427Z,24.65
2019-02-24T13:46:35.372Z,25.77
2019-02-24T13:49:05.250Z,25.69
2019-02-24T13:51:35.296Z,26.84
2019-02-24T13:54:05.443Z,26.84
2019-02-24T13:56:35.433Z,24.86
2019-02-24T13:59:06.456Z,23.83
2019-02-24T14:01:36.311Z,24.25
2019-02-24T14:04:06.229Z,24.52
2019-02-24T14:06:36.145Z,22.39
2019-02-24T14:09:06.122Z,21.75
2019-02-24T14:11:37.153Z,22.45
2019-02-24T14:14:07.073Z,22.84
2019-02-24T14:16:36.927Z,22.09
2019-02-24T14:19:07.058Z,21.65
2019-02-24T14:21:37.073Z,22.63
2019-02-24T14:24:07.002Z,22.59
2019-02-24T14:26:36.867Z,23.20
2019-02-24T14:29:06.736Z,23.47
2019-02-24T14:31:36.584Z,23.17
2019-02-24T14:34:07.370Z,23.58
2019-02-24T14:36:37.624Z,23.00
2019-02-24T14:39:07.932Z,21.22
2019-02-24T14:41:39.043Z,23.42
2019-02-24T14:44:08.962Z,22.85
2019-02-24T14:46:38.813Z,21.19
2019-02-24T14:49:09.141Z,21.66
2019-02-24T14:51:38.983Z,20.57
2019-02-24T14:54:09.518Z,20.62
2019-02-24T14:56:40.561Z,21.80
2019-02-24T14:59:10.377Z,22.78
2019-02-24T15:01:41.680Z,23.72
2019-02-24T15:04:12.774Z,23.38
2019-02-24T15:06:43.095Z,22.09
2019-02-24T15:09:12.943Z,22.35
2019-02-24T15:11:43.427Z,21.91
2019-02-24T15:14:13.343Z,25.06
2019-02-24T15:16:43.354Z,25.82
2019-02-24T15:19:13.578Z,26.14
2019-02-24T15:21:43.760Z,24.29
2019-02-24T15:24:13.672Z,23.70
2019-02-24T15:26:43.601Z,23.77
2019-02-24T15:29:13.843Z,23.34
2019-02-24T15:31:44.087Z,24.75
2019-02-24T15:34:13.914Z,24.99
2019-02-24T15:36:43.781Z,24.21
2019-02-24T15:39:13.625Z,23.65
2019-02-24T15:41:43.557Z,22.07
2019-02-24T15:44:13.746Z,23.64
2019-02-24T15:46:43.839Z,24.32
2019-02-24T15:49:13.724Z,24.32
2019-02-24T15:51:43.557Z,25.26
2019-02-24T15:54:13.406Z,25.37
2019-02-24T15:56:43.255Z,26.08
2019-02-24T15:59:13.230Z,27.40
2019-02-24T16:01:43.334Z,26.58
2019-02-24T16:04:13.217Z,27.38
2019-02-24T16:06:43.169Z,29.00
2019-02-24T16:09:13.355Z,29.04
2019-02-24T16:11:43.682Z,29.23
2019-02-24T16:14:13.833Z,29.57
2019-02-24T16:16:43.977Z,29.64
2019-02-24T16:19:13.822Z,30.32
2019-02-24T16:21:43.775Z,31.88
2019-02-24T16:24:14.035Z,30.92
2019-02-24T16:26:43.944Z,30.85
2019-02-24T16:29:13.994Z,30.22
2019-02-24T16:31:44.087Z,31.33
2019-02-24T16:34:13.916Z,30.41
2019-02-24T16:36:44.092Z,31.16
2019-02-24T16:39:13.995Z,31.41
2019-02-24T16:41:43.821Z,30.37
2019-02-24T16:44:14.614Z,30.98
2019-02-24T16:46:44.573Z,33.20
2019-02-24T16:49:14.345Z,31.28
2019-02-24T16:51:44.620Z,32.88
2019-02-24T16:54:14.598Z,33.78
2019-02-24T16:56:44.757Z,35.06
2019-02-24T16:59:14.678Z,36.22
2019-02-24T17:01:44.706Z,34.14
2019-02-24T17:04:15.339Z,34.78
2019-02-24T17:06:45.955Z,34.29
2019-02-24T17:09:15.779Z,34.60
2019-02-24T17:11:45.875Z,34.60
2019-02-24T17:14:15.712Z,35.07
2019-02-24T17:16:45.575Z,34.60
2019-02-24T17:19:15.442Z,36.24
2019-02-24T17:21:45.426Z,36.11
2019-02-24T17:24:15.373Z,35.64
2019-02-24T17:26:45.603Z,35.62
2019-02-24T17:29:15.430Z,36.64
2019-02-24T17:31:46.505Z,35.56
2019-02-24T17:34:16.768Z,35.86
2019-02-24T17:36:47.647Z,36.64
2019-02-24T17:39:17.541Z,37.39
2019-02-24T17:41:48.251Z,37.79
2019-02-24T17:44:18.214Z,37.99
2019-02-24T17:46:48.121Z,37.16
2019-02-24T17:49:18.101Z,37.89
2019-02-24T17:51:49.556Z,38.43
2019-02-24T17:54:19.764Z,37.86
2019-02-24T17:56:50.683Z,38.54
2019-02-24T17:59:21.096Z,38.50
2019-02-24T18:01:51.442Z,38.03
2019-02-24T18:04:21.897Z,38.14
2019-02-24T18:06:51.737Z,37.88
2019-02-24T18:09:21.589Z,38.39
2019-02-24T18:11:51.450Z,39.85
2019-02-24T18:14:21.458Z,38.84
2019-02-24T18:16:51.672Z,39.14
2019-02-24T18:19:21.524Z,41.10
2019-02-24T18:21:51.542Z,42.31
2019-02-24T18:24:21.496Z,40.78
2019-02-24T18:26:51.594Z,39.78
2019-02-24T18:29:22.710Z,40.24
2019-02-24T18:31:53.609Z,40.10
2019-02-24T18:34:23.647Z,39.70
2019-02-24T18:36:54.169Z,39.47
2019-02-24T18:39:23.996Z,39.78
2019-02-24T18:41:54.501Z,39.22
2019-02-24T18:44:24.628Z,38.86
2019-02-24T18:46:54.852Z,39.38
2019-02-24T18:49:26.216Z,40.22
2019-02-24T18:51:56.074Z,38.99
2019-02-24T18:54:34.366Z,39.08
2019-02-24T18:56:57.563Z,39.94
2019-02-24T18:59:28.355Z,42.49
2019-02-24T19:01:59.286Z,42.83
2019-02-24T19:04:29.136Z,42.78
2019-02-24T19:06:59.902Z,42.67
2019-02-24T19:09:29.743Z,42.57
2019-02-24T19:11:59.933Z,42.57
2019-02-24T19:14:30.048Z,43.11
2019-02-24T19:16:59.911Z,43.01
2019-02-24T19:19:30.105Z,42.69
2019-02-24T19:22:00.230Z,42.99
2019-02-24T19:24:30.014Z,42.82
2019-02-24T19:27:00.037Z,42.68
2019-02-24T19:29:30.326Z,43.36
2019-02-24T19:32:00.232Z,44.24
2019-02-24T19:34:30.167Z,46.17
2019-02-24T19:36:59.980Z,47.03
2019-02-24T19:39:29.864Z,46.19
2019-02-24T19:41:59.722Z,46.18
2019-02-24T19:44:30.029Z,46.07
2019-02-24T19:47:00.044Z,46.89
2019-02-24T19:49:29.874Z,47.12
2019-02-24T19:51:59.968Z,47.53
2019-02-24T19:54:30.061Z,48.15
2019-02-24T19:57:00.311Z,48.57
2019-02-24T19:59:30.731Z,50.38
2019-02-24T20:02:01.637Z,50.66
2019-02-24T20:04:31.440Z,50.18
2019-02-24T20:07:01.262Z,49.91
2019-02-24T20:09:31.374Z,50.86
2019-02-24T20:12:01.298Z,50.93
2019-02-24T20:14:31.121Z,51.68
2019-02-24T20:17:00.958Z,52.31
2019-02-24T20:19:31.199Z,52.94
2019-02-24T20:22:01.036Z,54.08
2019-02-24T20:24:33.073Z,53.36
2019-02-24T20:27:02.760Z,53.66
2019-02-24T20:29:32.522Z,54.09
2019-02-24T20:32:02.436Z,54.29
2019-02-24T20:34:32.384Z,54.87
2019-02-24T20:37:03.267Z,53.65
2019-02-24T20:39:33.168Z,52.35
2019-02-24T20:42:03.071Z,52.33
2019-02-24T20:44:33.557Z,52.63
2019-02-24T20:47:03.727Z,51.54
2019-02-24T20:49:33.852Z,50.16
2019-02-24T20:52:03.914Z,51.84
2019-02-24T20:54:34.193Z,49.48
2019-02-24T20:57:05.725Z,48.13
2019-02-24T20:59:36.960Z,47.18
2019-02-24T21:02:07.363Z,46.97
2019-02-24T21:04:37.458Z,46.74
2019-02-24T21:07:07.638Z,47.64
2019-02-24T21:09:37.867Z,49.67
2019-02-24T21:12:07.750Z,54.20
2019-02-24T21:14:37.814Z,57.77
2019-02-24T21:17:08.030Z,58.77
2019-02-24T21:19:38.143Z,58.93
2019-02-24T21:22:07.917Z,59.98
2019-02-24T21:24:38.065Z,60.32
2019-02-24T21:27:07.904Z,60.89
2019-02-24T21:29:37.829Z,61.86
2019-02-24T21:32:07.905Z,61.96
2019-02-24T21:34:37.733Z,62.58
2019-02-24T21:37:07.649Z,64.13
2019-02-24T21:39:37.549Z,65.37
2019-02-24T21:42:07.670Z,66.13
2019-02-24T21:44:37.835Z,66.07
2019-02-24T21:47:07.664Z,65.09
2019-02-24T21:49:37.584Z,64.70
2019-02-24T21:52:07.407Z,64.61
2019-02-24T21:54:37.245Z,65.19
2019-02-24T21:57:07.301Z,66.54
2019-02-24T21:59:37.359Z,66.47
2019-02-24T22:02:07.524Z,65.61
2019-02-24T22:04:38.425Z,65.32
2019-02-24T22:07:08.267Z,65.45
2019-02-24T22:09:39.174Z,66.29
2019-02-24T22:12:09.139Z,65.70
2019-02-24T22:14:38.958Z,65.34
2019-02-24T22:17:08.845Z,65.47
2019-02-24T22:19:38.622Z,65.25
2019-02-24T22:22:08.448Z,65.72
2019-02-24T22:24:38.683Z,65.92
2019-02-24T22:27:08.492Z,66.90
2019-02-24T22:29:38.324Z,67.11
2019-02-24T22:32:08.322Z,66.53
2019-02-24T22:34:38.193Z,68.31
2019-02-24T22:37:08.089Z,67.63
2019-02-24T22:39:37.902Z,67.71
2019-02-24T22:42:07.810Z,67.81
2019-02-24T22:44:37.780Z,68.02
2019-02-24T22:47:07.771Z,65.45
2019-02-24T22:49:37.582Z,64.00
2019-02-24T22:52:07.438Z,66.34
2019-02-24T22:54:37.283Z,66.76
2019-02-24T22:57:07.122Z,66.78
2019-02-24T22:59:37.385Z,66.09
2019-02-24T23:02:07.498Z,67.17
2019-02-24T23:04:37.503Z,68.32
2019-02-24T23:07:07.360Z,68.63
2019-02-24T23:09:37.545Z,67.83
2019-02-24T23:12:07.709Z,67.22
2019-02-24T23:14:37.567Z,67.61
2019-02-24T23:17:07.447Z,69.19
2019-02-24T23:19:37.275Z,69.19
2019-02-24T23:22:07.177Z,67.65
2019-02-24T23:24:36.966Z,65.49
2019-02-24T23:27:06.826Z,66.16
2019-02-24T23:29:36.957Z,66.89
2019-02-24T23:32:06.872Z,66.91
2019-02-24T23:34:36.714Z,66.14
2019-02-24T23:37:06.586Z,65.54
2019-02-24T23:39:37.584Z,64.41
2019-02-24T23:42:07.404Z,63.39
2019-02-24T23:44:37.325Z,62.79
2019-02-24T23:47:07.122Z,62.59
2019-02-24T23:49:36.903Z,61.80
2019-02-24T23:52:06.831Z,62.28
2019-02-24T23:54:37.097Z,62.28
2019-02-24T23:57:07.011Z,63.33
2019-02-24T23:59:36.899Z,63.21
